createdAt,value
2019-05-21T00:04:27.488Z,93.25
2019-05-21T00:09:13.240Z,93.65
2019-05-21T00:14:12.846Z,93.58
2019-05-21T00:19:11.832Z,93.87
2019-05-21T00:24:11.828Z,93.79
2019-05-21T00:29:11.841Z,93.60
2019-05-21T00:34:11.794Z,94.20
2019-05-21T00:39:11.902Z,94.42
2019-05-21T00:44:10.788Z,94.48
2019-05-21T00:49:10.910Z,94.81
2019-05-21T00:54:09.707Z,94.91
2019-05-21T00:59:09.832Z,95.22
2019-05-21T01:04:09.793Z,95.17
2019-05-21T01:09:09.824Z,95.14
2019-05-21T01:14:08.983Z,94.85
2019-05-21T01:19:09.795Z,94.81
2019-05-21T01:24:08.944Z,94.74
2019-05-21T01:29:08.851Z,95.01
2019-05-21T01:34:11.420Z,95.45
2019-05-21T01:39:08.789Z,95.26
2019-05-21T01:44:08.915Z,95.37
2019-05-21T01:49:07.932Z,95.27
2019-05-21T01:54:08.833Z,95.38
2019-05-21T01:59:09.039Z,95.31
2019-05-21T02:04:07.819Z,95.59
2019-05-21T02:09:07.795Z,95.61
2019-05-21T02:14:06.900Z,95.83
2019-05-21T02:19:06.978Z,96.10
2019-05-21T02:24:07.854Z,95.98
2019-05-21T02:29:06.866Z,96.03
2019-05-21T02:34:06.105Z,96.27
2019-05-21T02:39:05.764Z,96.14
2019-05-21T02:44:04.918Z,96.18
2019-05-21T02:49:04.793Z,96.18
2019-05-21T02:54:04.773Z,96.33
2019-05-21T02:59:04.808Z,96.73
2019-05-21T03:04:03.856Z,96.91
2019-05-21T03:09:02.807Z,96.86
2019-05-21T03:14:01.774Z,97.02
2019-05-21T03:19:01.824Z,97.12
2019-05-21T03:24:01.822Z,97.16
2019-05-21T03:29:01.809Z,97.19
2019-05-21T03:34:00.788Z,97.50
2019-05-21T03:39:00.867Z,97.42
2019-05-21T03:43:59.973Z,97.63
2019-05-21T03:49:00.828Z,97.94
2019-05-21T03:54:00.808Z,97.99
2019-05-21T03:59:00.764Z,97.91
2019-05-21T04:04:00.811Z,97.95
2019-05-21T04:09:00.786Z,97.81
2019-05-21T04:14:00.179Z,97.80
2019-05-21T04:18:59.859Z,97.66
2019-05-21T04:23:59.806Z,97.86
2019-05-21T04:28:59.758Z,97.79
2019-05-21T04:33:58.822Z,97.48
2019-05-21T04:38:58.797Z,97.45
2019-05-21T04:43:58.755Z,97.16
2019-05-21T04:48:57.809Z,97.34
2019-05-21T04:53:56.782Z,97.19
2019-05-21T04:58:56.798Z,97.09
2019-05-21T05:03:56.812Z,97.05
2019-05-21T05:08:56.824Z,97.07
2019-05-21T05:13:56.768Z,96.88
2019-05-21T05:18:56.189Z,96.95
2019-05-21T05:23:55.174Z,96.97
2019-05-21T05:28:54.777Z,96.96
2019-05-21T05:33:54.823Z,96.66
2019-05-21T05:38:53.793Z,96.35
2019-05-21T05:43:52.931Z,96.48
2019-05-21T05:48:52.815Z,96.35
2019-05-21T05:53:51.846Z,96.38
2019-05-21T05:58:51.186Z,95.98
2019-05-21T06:03:51.819Z,96.00
2019-05-21T06:08:51.863Z,95.99
2019-05-21T06:13:50.765Z,95.77
2019-05-21T06:18:50.759Z,96.04
2019-05-21T06:23:49.809Z,95.67
2019-05-21T06:28:48.813Z,95.21
2019-05-21T06:33:48.746Z,95.48
2019-05-21T06:38:48.769Z,96.01
2019-05-21T06:43:47.831Z,95.37
2019-05-21T06:48:47.218Z,95.41
2019-05-21T06:53:46.797Z,95.73
2019-05-21T06:58:47.763Z,95.50
2019-05-21T07:03:46.801Z,95.35
2019-05-21T07:08:45.748Z,95.28
2019-05-21T07:13:44.847Z,95.46
2019-05-21T07:18:44.749Z,95.13
2019-05-21T07:23:44.812Z,95.01
2019-05-21T07:28:44.775Z,94.94
2019-05-21T07:33:44.005Z,94.57
2019-05-21T07:38:52.639Z,94.56
2019-05-21T07:43:43.224Z,94.73
2019-05-21T07:48:42.810Z,94.21
2019-05-21T07:53:42.969Z,94.36
2019-05-21T07:58:43.056Z,94.26
2019-05-21T08:03:41.743Z,94.34
2019-05-21T08:08:41.861Z,94.71
2019-05-21T08:13:41.757Z,94.81
2019-05-21T08:18:41.027Z,95.08
2019-05-21T08:23:40.688Z,95.66
2019-05-21T08:28:40.636Z,95.02
2019-05-21T08:33:40.658Z,95.35
2019-05-21T08:38:40.738Z,95.91
2019-05-21T08:43:39.756Z,95.16
2019-05-21T08:48:39.757Z,95.79
2019-05-21T08:53:38.688Z,96.04
2019-05-21T08:58:38.737Z,95.70
2019-05-21T09:03:37.703Z,95.77
2019-05-21T09:08:37.749Z,95.09
2019-05-21T09:18:37.662Z,95.66
2019-05-21T09:23:37.735Z,95.06
2019-05-21T09:28:38.713Z,94.70
2019-05-21T09:33:37.989Z,95.02
2019-05-21T09:38:36.810Z,95.30
2019-05-21T09:43:35.652Z,95.35
2019-05-21T09:48:35.723Z,94.92
2019-05-21T09:53:35.627Z,94.74
2019-05-21T09:58:34.727Z,94.69
2019-05-21T10:03:34.003Z,95.52
2019-05-21T10:08:37.189Z,94.95
2019-05-21T10:13:33.680Z,94.96
2019-05-21T10:18:32.892Z,95.31
2019-05-21T10:23:31.952Z,94.96
2019-05-21T10:28:31.664Z,95.59
2019-05-21T10:33:31.770Z,95.86
2019-05-21T10:38:30.831Z,95.52
2019-05-21T10:43:30.699Z,95.39
2019-05-21T10:48:30.037Z,95.28
2019-05-21T10:53:29.864Z,95.32
2019-05-21T11:03:28.796Z,95.97
2019-05-21T11:08:27.835Z,95.44
2019-05-21T11:13:26.854Z,95.56
2019-05-21T11:18:25.674Z,95.54
2019-05-21T11:23:25.702Z,95.63
2019-05-21T11:28:24.722Z,95.08
2019-05-21T11:33:24.704Z,95.40
2019-05-21T11:38:39.048Z,96.01
2019-05-21T11:43:23.641Z,95.40
2019-05-21T11:48:23.680Z,95.20
2019-05-21T11:53:22.940Z,94.77
2019-05-21T11:58:22.708Z,95.05
2019-05-21T12:03:21.902Z,95.55
2019-05-21T12:08:21.063Z,95.59
2019-05-21T12:13:20.875Z,95.61
2019-05-21T12:18:20.594Z,95.36
2019-05-21T12:23:20.659Z,95.32
2019-05-21T12:28:20.642Z,95.86
2019-05-21T12:33:19.653Z,95.42
2019-05-21T12:38:19.673Z,95.15
2019-05-21T12:43:19.056Z,95.07
2019-05-21T12:48:17.950Z,95.00
2019-05-21T12:53:17.643Z,94.83
2019-05-21T12:58:17.047Z,95.35
2019-05-21T13:03:16.664Z,94.87
2019-05-21T13:08:15.679Z,95.00
2019-05-21T13:13:16.627Z,94.74
2019-05-21T13:18:16.736Z,95.28
2019-05-21T13:23:15.628Z,94.89
2019-05-21T13:28:14.651Z,94.76
2019-05-21T13:33:14.662Z,95.29
2019-05-21T13:38:13.919Z,95.52
2019-05-21T13:43:12.653Z,94.68
2019-05-21T13:48:12.615Z,94.89
2019-05-21T13:53:12.830Z,94.76
2019-05-21T13:58:12.632Z,95.12
2019-05-21T14:03:11.691Z,95.46
2019-05-21T14:08:10.837Z,95.30
2019-05-21T14:13:10.673Z,95.67
2019-05-21T14:18:09.761Z,95.02
2019-05-21T14:23:10.600Z,95.36
2019-05-21T14:28:10.666Z,95.46
2019-05-21T14:33:10.645Z,95.30
2019-05-21T14:38:09.615Z,95.08
2019-05-21T14:43:09.628Z,96.38
2019-05-21T14:48:08.641Z,95.12
2019-05-21T14:53:08.634Z,95.67
2019-05-21T14:58:07.852Z,95.45
2019-05-21T15:03:22.815Z,96.00
2019-05-21T15:08:09.591Z,95.76
2019-05-21T15:13:08.999Z,95.40
2019-05-21T15:18:07.707Z,96.21
2019-05-21T15:23:06.830Z,95.88
2019-05-21T15:28:06.767Z,95.96
2019-05-21T15:33:06.709Z,96.06
2019-05-21T15:38:05.623Z,96.50
2019-05-21T15:43:05.737Z,95.94
2019-05-21T15:48:05.638Z,96.63
2019-05-21T15:53:04.668Z,96.35
2019-05-21T16:03:03.862Z,95.71
2019-05-21T16:08:03.614Z,96.04
2019-05-21T16:13:02.661Z,96.06
2019-05-21T16:18:01.937Z,95.69
2019-05-21T16:23:02.622Z,96.34
2019-05-21T16:28:01.647Z,95.99
2019-05-21T16:33:02.624Z,96.16
2019-05-21T16:38:02.664Z,95.47
2019-05-21T16:43:01.609Z,95.83
2019-05-21T16:48:01.618Z,95.94
2019-05-21T16:53:01.678Z,96.37
2019-05-21T16:58:00.980Z,96.29
2019-05-21T17:03:00.612Z,96.60
2019-05-21T17:08:00.627Z,96.42
2019-05-21T17:12:59.628Z,96.63
2019-05-21T17:17:59.638Z,96.44
2019-05-21T17:22:59.747Z,96.69
2019-05-21T17:27:58.643Z,97.04
2019-05-21T17:32:57.971Z,96.90
2019-05-21T17:37:57.621Z,96.92
2019-05-21T17:42:57.651Z,96.36
2019-05-21T17:47:57.008Z,96.75
2019-05-21T17:52:57.701Z,96.54
2019-05-21T17:57:58.651Z,96.72
2019-05-21T18:02:58.593Z,96.29
2019-05-21T18:07:58.610Z,96.74
2019-05-21T18:12:58.703Z,96.61
2019-05-21T18:17:58.081Z,96.65
2019-05-21T18:22:57.587Z,96.50
2019-05-21T18:27:57.609Z,95.83
2019-05-21T18:32:57.621Z,96.13
2019-05-21T18:37:58.704Z,96.00
2019-05-21T18:42:58.583Z,95.98
2019-05-21T18:47:58.590Z,96.31
2019-05-21T18:52:57.631Z,96.17
2019-05-21T18:57:57.627Z,95.61
2019-05-21T19:02:56.764Z,95.60
2019-05-21T19:12:55.681Z,95.52
2019-05-21T19:17:55.565Z,95.24
2019-05-21T19:22:54.828Z,95.42
2019-05-21T19:27:53.796Z,95.38
2019-05-21T19:32:53.605Z,95.63
2019-05-21T19:37:53.618Z,95.65
2019-05-21T19:42:55.421Z,95.47
2019-05-21T19:47:52.750Z,95.59
2019-05-21T19:52:51.667Z,95.48
2019-05-21T20:02:51.601Z,95.68
2019-05-21T20:07:50.651Z,95.67
2019-05-21T20:12:50.614Z,95.93
2019-05-21T20:17:52.390Z,96.01
2019-05-21T20:22:49.641Z,95.54
2019-05-21T20:27:50.623Z,95.56
2019-05-21T20:32:50.690Z,95.50
2019-05-21T20:37:50.619Z,95.69
2019-05-21T20:42:49.600Z,95.44
2019-05-21T20:47:48.689Z,95.92
2019-05-21T20:52:48.568Z,96.13
2019-05-21T20:57:47.827Z,96.07
2019-05-21T21:02:47.623Z,96.19
2019-05-21T21:07:47.634Z,96.59
2019-05-21T21:12:46.557Z,96.54
2019-05-21T21:17:46.582Z,96.95
2019-05-21T21:22:47.577Z,97.28
2019-05-21T21:27:47.010Z,97.21
2019-05-21T21:32:46.654Z,97.08
2019-05-21T21:37:47.609Z,97.24
2019-05-21T21:42:47.634Z,96.90
2019-05-21T21:47:46.603Z,96.96
2019-05-21T21:57:45.612Z,97.46
2019-05-21T22:02:45.596Z,97.64
2019-05-21T22:07:44.733Z,97.68
2019-05-21T22:12:44.624Z,97.40
2019-05-21T22:17:44.570Z,97.54
2019-05-21T22:22:43.575Z,97.74
2019-05-21T22:27:42.827Z,97.84
2019-05-21T22:32:42.669Z,97.99
2019-05-21T22:37:42.601Z,98.01
2019-05-21T22:42:42.759Z,98.11
2019-05-21T22:47:41.674Z,98.20
2019-05-21T22:52:42.567Z,98.33
2019-05-21T22:57:41.541Z,98.21
2019-05-21T23:02:41.573Z,98.28
2019-05-21T23:07:40.564Z,98.32
2019-05-21T23:12:40.628Z,98.57
2019-05-21T23:17:39.801Z,98.57
2019-05-21T23:22:38.545Z,98.69
2019-05-21T23:27:37.752Z,98.76
2019-05-21T23:32:36.814Z,98.85
2019-05-21T23:37:35.758Z,98.88
2019-05-21T23:42:34.793Z,98.77
2019-05-21T23:47:34.618Z,98.95
2019-05-21T23:52:37.112Z,99.15
2019-05-21T23:57:33.653Z,99.26
